首页
METAR-TAF:

METAR-TAF

机场 :

Gillette, 怀俄明州, 美国

纬度: 44-20-22N, 经度: 105-32-31W, 海拔: 1330米

当前天气观测

该预报发布于40分钟前的09:53 UTC
风速13节,风向西南
温度 -16°C
湿度 65%
气压 1024 hPa
能見度: 16.1公里
天空无云

METAR: KGCC 260953Z AUTO 22013KT 10SM CLR M16/M21 A3024 RMK AO2 SLP321 T11611206 FZRANO $

时间: 04:33 (10:33 UTC)

预报

该预报发布于5小时和13分钟前的05:20 UTC
预报有效从26日的 06点(UTC)到 27日的 06点(UTC)
风速7节,风向西南
能見度: 10公里
天空无云
从 26日的 1100点(UTC)
风速12节,风向西转西南
能見度: 10公里
散云层高于15000英尺

TAF: KGCC 260520Z 2606/2706 23007KT P6SM SKC FM261100 24012KT P6SM SCT150

超过4000个机场的气象观测和天气预报(METAR&TAF报告)。

可查询的气象台以黄色和红色小点在地图上表示。

将鼠标移到小点上方,可查看气象台名称。

然后点击查看天气观测和预报。

如需切换地图:点击带黑十字的绿色按钮放大地图;点击带横线的绿色按钮缩小地图;或者点击绿色箭头查看邻近地区的地图。


METAR-TAF: